createdAt,value
2022-11-30T00:01:33.316Z,22.20
2022-11-30T00:04:02.602Z,15.00
2022-11-30T00:06:31.613Z,17.00
2022-11-30T00:09:02.772Z,17.60
2022-11-30T00:11:31.454Z,15.60
2022-11-30T00:14:01.123Z,21.20
2022-11-30T00:16:29.844Z,18.60
2022-11-30T00:18:59.062Z,9.40
2022-11-30T00:21:30.186Z,18.80
2022-11-30T00:23:58.830Z,15.80
2022-11-30T00:26:29.347Z,12.40
2022-11-30T00:28:58.869Z,17.60
2022-11-30T00:31:27.905Z,17.60
2022-11-30T00:33:58.167Z,13.00
2022-11-30T00:36:29.417Z,11.20
2022-11-30T00:38:58.553Z,14.80
2022-11-30T00:41:28.642Z,10.80
2022-11-30T00:43:57.634Z,14.40
2022-11-30T00:46:44.519Z,10.00
2022-11-30T00:49:13.445Z,15.20
2022-11-30T00:51:42.116Z,19.00
2022-11-30T00:54:12.290Z,15.00
2022-11-30T00:56:43.538Z,18.00
2022-11-30T00:59:13.440Z,24.00
2022-11-30T01:01:43.199Z,15.00
2022-11-30T01:04:12.425Z,18.20
2022-11-30T01:06:42.093Z,14.40
2022-11-30T01:09:12.594Z,19.60
2022-11-30T01:11:42.692Z,13.80
2022-11-30T01:14:11.471Z,16.60
2022-11-30T01:16:40.163Z,12.40
2022-11-30T01:19:08.854Z,16.80
2022-11-30T01:21:38.965Z,12.60
2022-11-30T01:24:11.136Z,11.60
2022-11-30T01:26:40.238Z,17.80
2022-11-30T01:29:28.796Z,15.20
2022-11-30T01:31:57.667Z,10.80
2022-11-30T01:34:26.635Z,15.80
2022-11-30T01:36:56.769Z,21.20
2022-11-30T01:39:25.457Z,16.80
2022-11-30T01:41:55.339Z,16.20
2022-11-30T01:44:51.031Z,11.20
2022-11-30T01:47:21.953Z,15.00
2022-11-30T01:49:56.081Z,14.80
2022-11-30T01:52:27.804Z,18.20
2022-11-30T01:54:59.172Z,16.40
2022-11-30T01:57:34.289Z,20.80
2022-11-30T02:00:09.067Z,18.40
2022-11-30T02:02:41.948Z,19.80
2022-11-30T02:05:10.911Z,23.40
2022-11-30T02:07:39.672Z,15.00
2022-11-30T02:10:09.479Z,18.40
2022-11-30T02:12:42.874Z,11.20
2022-11-30T02:15:14.001Z,12.20
2022-11-30T02:17:46.337Z,13.20
2022-11-30T02:20:33.132Z,22.20
2022-11-30T02:23:22.114Z,21.80
2022-11-30T02:25:58.451Z,20.20
2022-11-30T02:28:45.251Z,13.40
2022-11-30T02:31:16.980Z,10.60
2022-11-30T02:33:45.858Z,9.00
2022-11-30T02:36:14.611Z,13.00
2022-11-30T02:38:43.853Z,19.40
2022-11-30T02:41:12.808Z,18.20
2022-11-30T02:43:43.236Z,24.60
2022-11-30T02:46:16.136Z,15.20
2022-11-30T02:48:45.887Z,15.20
2022-11-30T02:51:15.850Z,16.60
2022-11-30T02:53:44.947Z,18.20
2022-11-30T02:56:13.885Z,18.40
2022-11-30T02:58:45.006Z,22.00
2022-11-30T03:01:14.160Z,17.60
2022-11-30T03:03:43.506Z,14.80
2022-11-30T03:06:14.279Z,16.00
2022-11-30T03:08:43.130Z,17.80
2022-11-30T03:11:12.037Z,13.80
2022-11-30T03:13:41.407Z,20.60
2022-11-30T03:16:12.763Z,16.80
2022-11-30T03:18:42.573Z,15.00
2022-11-30T03:21:12.470Z,13.20
2022-11-30T03:23:41.375Z,15.00
2022-11-30T03:26:10.673Z,12.80
2022-11-30T03:28:40.027Z,14.20
2022-11-30T03:31:09.041Z,12.80
2022-11-30T03:33:42.248Z,12.80
2022-11-30T03:36:12.491Z,15.00
2022-11-30T03:38:41.430Z,10.80
2022-11-30T03:41:11.393Z,18.80
2022-11-30T03:43:41.822Z,14.60
2022-11-30T03:46:11.002Z,10.80
2022-11-30T03:48:42.535Z,17.20
2022-11-30T03:51:12.014Z,10.60
2022-11-30T03:53:41.054Z,13.80
2022-11-30T03:56:10.676Z,17.80
2022-11-30T03:58:40.024Z,12.00
2022-11-30T04:01:09.824Z,13.00
2022-11-30T04:03:38.843Z,10.00
2022-11-30T04:06:09.785Z,17.80
2022-11-30T04:08:39.215Z,12.60
2022-11-30T04:11:08.697Z,13.60
2022-11-30T04:13:42.384Z,11.20
2022-11-30T04:16:12.035Z,12.20
2022-11-30T04:18:41.894Z,13.20
2022-11-30T04:21:13.812Z,20.60
2022-11-30T04:23:43.496Z,11.00
2022-11-30T04:26:13.468Z,9.80
2022-11-30T04:28:42.238Z,16.60
2022-11-30T04:31:11.546Z,10.40
2022-11-30T04:33:40.307Z,14.60
2022-11-30T04:36:10.739Z,7.80
2022-11-30T04:38:41.178Z,17.20
2022-11-30T04:41:10.110Z,6.00
2022-11-30T04:43:39.202Z,10.40
2022-11-30T04:46:09.593Z,12.20
2022-11-30T04:48:38.750Z,11.40
2022-11-30T04:51:08.676Z,15.60
2022-11-30T04:53:38.055Z,11.00
2022-11-30T04:56:11.562Z,13.60
2022-11-30T04:58:40.612Z,9.80
2022-11-30T05:01:09.491Z,9.00
2022-11-30T05:03:38.219Z,12.40
2022-11-30T05:06:28.217Z,10.40
2022-11-30T05:08:56.917Z,7.20
2022-11-30T05:11:27.022Z,12.60
2022-11-30T05:13:56.150Z,9.60
2022-11-30T05:16:25.022Z,13.40
2022-11-30T05:18:53.701Z,13.60
2022-11-30T05:21:22.665Z,14.00
2022-11-30T05:23:52.579Z,16.80
2022-11-30T05:26:21.289Z,18.40
2022-11-30T05:28:51.364Z,13.00
2022-11-30T05:31:20.551Z,15.80
2022-11-30T05:33:52.463Z,17.00
2022-11-30T05:36:23.779Z,20.80
2022-11-30T05:38:54.148Z,13.80
2022-11-30T05:41:23.904Z,13.20
2022-11-30T05:43:54.079Z,14.40
2022-11-30T05:46:22.836Z,19.60
2022-11-30T05:48:51.874Z,16.40
2022-11-30T05:51:21.125Z,12.80
2022-11-30T05:53:51.147Z,18.40
2022-11-30T05:56:20.915Z,15.40
2022-11-30T05:58:49.614Z,16.80
2022-11-30T06:01:21.355Z,14.80
2022-11-30T06:06:36.589Z,16.80
2022-11-30T06:09:05.669Z,17.80
2022-11-30T06:11:34.385Z,13.80
2022-11-30T06:14:03.146Z,22.80
2022-11-30T06:16:33.805Z,15.20
2022-11-30T06:19:20.723Z,14.00
2022-11-30T06:21:49.425Z,20.20
2022-11-30T06:24:18.125Z,17.80
2022-11-30T06:26:46.848Z,24.60
2022-11-30T06:29:15.963Z,27.40
2022-11-30T06:31:46.120Z,20.80
2022-11-30T06:34:14.839Z,23.40
2022-11-30T06:36:43.584Z,22.40
2022-11-30T06:39:12.716Z,23.60
2022-11-30T06:41:41.773Z,11.40
2022-11-30T06:44:11.214Z,33.80
2022-11-30T06:46:40.054Z,21.20
2022-11-30T06:49:11.233Z,12.20
2022-11-30T06:51:42.660Z,13.80
2022-11-30T06:54:11.967Z,18.80
2022-11-30T06:56:40.607Z,24.60
2022-11-30T06:59:09.787Z,17.20
2022-11-30T07:01:38.475Z,13.80
2022-11-30T07:04:07.292Z,24.00
2022-11-30T07:06:37.361Z,26.80
2022-11-30T07:09:06.556Z,21.40
2022-11-30T07:11:35.516Z,9.60
2022-11-30T07:14:04.190Z,13.80
2022-11-30T07:16:33.188Z,20.00
2022-11-30T07:19:01.896Z,19.80
2022-11-30T07:21:30.932Z,21.60
2022-11-30T07:24:20.307Z,21.60
2022-11-30T07:26:48.987Z,22.20
2022-11-30T07:29:17.641Z,14.20
2022-11-30T07:31:51.881Z,22.40
2022-11-30T07:34:20.631Z,23.20
2022-11-30T07:36:49.330Z,17.20
2022-11-30T07:39:19.468Z,17.60
2022-11-30T07:41:48.122Z,20.60
2022-11-30T07:44:16.799Z,27.60
2022-11-30T07:46:45.487Z,19.00
2022-11-30T07:49:14.177Z,27.40
2022-11-30T07:54:30.071Z,26.00
2022-11-30T07:56:58.718Z,27.20
2022-11-30T07:59:27.450Z,27.00
2022-11-30T08:01:56.284Z,21.80
2022-11-30T08:04:25.764Z,22.80
2022-11-30T08:06:55.375Z,23.00
2022-11-30T08:09:24.300Z,28.60
2022-11-30T08:11:54.390Z,22.00
2022-11-30T08:14:23.051Z,14.60
2022-11-30T08:16:52.112Z,26.60
2022-11-30T08:19:20.836Z,21.80
2022-11-30T08:21:52.034Z,21.20
2022-11-30T08:24:20.761Z,19.60
2022-11-30T08:26:53.999Z,14.60
2022-11-30T08:29:22.883Z,17.80
2022-11-30T08:31:51.580Z,25.40
2022-11-30T08:34:32.613Z,24.60
2022-11-30T08:37:01.337Z,21.20
2022-11-30T08:39:32.075Z,21.40
2022-11-30T08:42:02.219Z,31.00
2022-11-30T08:44:31.230Z,23.20
2022-11-30T08:46:59.987Z,25.20
2022-11-30T08:49:29.651Z,19.80
2022-11-30T08:54:47.916Z,25.00
2022-11-30T08:57:18.976Z,24.60
2022-11-30T08:59:48.442Z,23.20
2022-11-30T09:02:18.841Z,20.00
2022-11-30T09:04:49.699Z,22.40
2022-11-30T09:07:18.532Z,21.60
2022-11-30T09:12:37.520Z,17.40
2022-11-30T09:15:07.079Z,23.60
2022-11-30T09:17:35.771Z,18.60
2022-11-30T09:20:04.529Z,24.00
2022-11-30T09:22:34.999Z,18.60
2022-11-30T09:25:03.923Z,20.20
2022-11-30T09:27:33.930Z,20.40
2022-11-30T09:30:05.422Z,10.60
2022-11-30T09:32:34.130Z,28.40
2022-11-30T09:35:02.816Z,25.60
2022-11-30T09:37:31.556Z,22.80
2022-11-30T09:40:00.485Z,20.20
2022-11-30T09:42:35.170Z,26.60
2022-11-30T09:45:11.488Z,21.40
2022-11-30T09:47:48.314Z,11.60
2022-11-30T09:50:20.117Z,27.40
2022-11-30T09:52:50.315Z,17.20
2022-11-30T09:55:28.145Z,20.40
2022-11-30T09:57:58.411Z,24.00
2022-11-30T10:00:28.941Z,25.20
2022-11-30T10:02:58.427Z,27.60
2022-11-30T10:05:28.891Z,22.20
2022-11-30T10:08:12.503Z,23.40
2022-11-30T10:10:43.490Z,15.00
2022-11-30T10:13:21.544Z,28.80
2022-11-30T10:15:58.391Z,21.60
2022-11-30T10:18:30.736Z,26.80
2022-11-30T10:21:04.392Z,24.40
2022-11-30T10:23:45.729Z,16.40
2022-11-30T10:26:19.779Z,17.40
2022-11-30T10:28:56.021Z,12.60
2022-11-30T10:31:31.788Z,21.20
2022-11-30T10:34:03.684Z,22.40
2022-11-30T10:36:36.540Z,24.40
2022-11-30T10:39:11.809Z,20.80
2022-11-30T10:41:44.972Z,26.20
2022-11-30T10:44:17.874Z,23.20
2022-11-30T10:46:50.884Z,19.80
2022-11-30T10:49:21.176Z,22.80
2022-11-30T10:51:52.608Z,24.40
2022-11-30T10:54:22.246Z,23.20
2022-11-30T10:56:51.997Z,20.60
2022-11-30T10:59:23.336Z,24.40
2022-11-30T11:01:53.908Z,15.60
2022-11-30T11:04:24.070Z,30.20
2022-11-30T11:06:53.983Z,16.80
2022-11-30T11:09:33.774Z,23.60
2022-11-30T11:12:03.660Z,25.00
2022-11-30T11:14:37.748Z,17.00
2022-11-30T11:17:21.950Z,27.40
2022-11-30T11:19:56.732Z,21.80
2022-11-30T11:22:27.265Z,18.40
2022-11-30T11:24:57.471Z,25.40
2022-11-30T11:27:28.625Z,15.60
2022-11-30T11:30:04.154Z,22.40
2022-11-30T11:33:02.557Z,23.40
2022-11-30T11:35:34.948Z,25.80
2022-11-30T11:38:05.550Z,21.60
2022-11-30T11:40:34.272Z,25.80
2022-11-30T11:43:04.557Z,18.60
2022-11-30T11:45:39.338Z,26.60
2022-11-30T11:48:39.155Z,27.20
2022-11-30T11:51:16.109Z,23.60
2022-11-30T11:56:38.841Z,23.20
2022-11-30T11:59:15.673Z,23.80
2022-11-30T12:01:50.785Z,19.40
2022-11-30T12:04:35.688Z,13.40
2022-11-30T12:07:15.048Z,27.80
2022-11-30T12:09:55.351Z,25.80
2022-11-30T12:12:24.682Z,22.80
2022-11-30T12:14:55.913Z,19.20
2022-11-30T12:17:34.809Z,18.00
2022-11-30T12:20:16.862Z,23.00
2022-11-30T12:23:02.582Z,20.60
2022-11-30T12:25:35.636Z,15.80
2022-11-30T12:28:17.465Z,24.00
2022-11-30T12:30:51.698Z,22.40
2022-11-30T12:33:26.327Z,28.80
2022-11-30T12:36:01.301Z,21.40
2022-11-30T12:38:39.010Z,20.20
2022-11-30T12:41:22.414Z,17.20
2022-11-30T12:43:56.675Z,21.00
2022-11-30T12:46:31.120Z,15.00
2022-11-30T12:49:10.648Z,19.00
2022-11-30T12:51:44.599Z,20.40
2022-11-30T12:54:16.133Z,21.20
2022-11-30T12:56:47.340Z,23.20
2022-11-30T12:59:21.090Z,25.80
2022-11-30T13:02:18.971Z,14.20
2022-11-30T13:04:56.348Z,23.60
2022-11-30T13:07:31.494Z,25.80
2022-11-30T13:10:02.388Z,20.20
2022-11-30T13:12:36.506Z,25.80
2022-11-30T13:15:09.785Z,24.60
2022-11-30T13:17:43.491Z,20.20
2022-11-30T13:20:18.379Z,20.20
2022-11-30T13:22:51.947Z,20.20
2022-11-30T13:25:51.966Z,17.00
2022-11-30T13:28:16.299Z,25.00
2022-11-30T13:30:46.825Z,17.60
2022-11-30T13:33:40.199Z,14.60
2022-11-30T13:36:27.711Z,16.80
2022-11-30T13:41:54.890Z,30.40
2022-11-30T13:44:29.501Z,17.60
2022-11-30T13:47:01.286Z,16.00
2022-11-30T13:49:33.072Z,17.00
2022-11-30T13:54:58.459Z,15.00
2022-11-30T13:57:56.674Z,19.00
2022-11-30T14:00:50.602Z,17.80
2022-11-30T14:03:25.240Z,15.40
2022-11-30T14:05:56.196Z,14.20
2022-11-30T14:08:37.868Z,13.00
2022-11-30T14:11:36.567Z,11.00
2022-11-30T14:14:35.282Z,16.80
2022-11-30T14:17:06.663Z,15.40
2022-11-30T14:19:36.922Z,11.60
2022-11-30T14:22:06.301Z,16.00
2022-11-30T14:24:35.521Z,17.40
2022-11-30T14:27:07.702Z,15.20
2022-11-30T14:29:41.031Z,6.60
2022-11-30T14:32:13.900Z,19.00
2022-11-30T14:34:44.389Z,16.40
2022-11-30T14:37:18.246Z,15.80
2022-11-30T14:39:48.044Z,16.80
2022-11-30T14:42:26.499Z,6.40
2022-11-30T14:44:55.672Z,18.00
2022-11-30T14:47:27.885Z,14.40
2022-11-30T14:49:58.745Z,17.60
2022-11-30T14:52:41.831Z,20.40
2022-11-30T14:55:17.674Z,15.20
2022-11-30T14:58:07.390Z,16.80
2022-11-30T15:00:39.106Z,14.40
2022-11-30T15:03:27.979Z,19.20
2022-11-30T15:05:58.648Z,16.00
2022-11-30T15:08:35.578Z,5.60
2022-11-30T15:13:54.492Z,16.60
2022-11-30T15:16:30.594Z,13.20
2022-11-30T15:19:02.799Z,6.20
2022-11-30T15:21:36.498Z,14.00
2022-11-30T15:24:05.553Z,3.60
2022-11-30T15:26:36.676Z,8.20
2022-11-30T15:29:06.707Z,7.60
2022-11-30T15:31:39.117Z,6.00
2022-11-30T15:34:18.043Z,6.00
2022-11-30T15:36:46.817Z,6.80
2022-11-30T15:39:21.050Z,8.40
2022-11-30T15:41:54.526Z,9.20
2022-11-30T15:44:26.566Z,7.00
2022-11-30T15:46:58.151Z,4.40
2022-11-30T15:49:28.927Z,3.80
2022-11-30T15:52:04.485Z,5.20
2022-11-30T15:54:46.439Z,4.80
2022-11-30T15:57:15.691Z,7.40
2022-11-30T15:59:45.919Z,7.00
2022-11-30T16:02:26.862Z,6.00
2022-11-30T16:05:21.493Z,6.00
2022-11-30T16:07:51.683Z,7.00
2022-11-30T16:10:23.360Z,8.20
2022-11-30T16:12:52.586Z,8.60
2022-11-30T16:15:22.196Z,8.40
2022-11-30T16:17:51.461Z,4.40
2022-11-30T16:20:23.074Z,8.00
2022-11-30T16:22:52.155Z,7.00
2022-11-30T16:25:22.466Z,8.20
2022-11-30T16:27:51.273Z,7.80
2022-11-30T16:30:22.653Z,8.20
2022-11-30T16:32:51.910Z,8.60
2022-11-30T16:35:23.334Z,5.60
2022-11-30T16:37:55.946Z,7.00
2022-11-30T16:40:32.698Z,6.00
2022-11-30T16:43:06.052Z,4.00
2022-11-30T16:45:36.790Z,8.20
2022-11-30T16:48:10.553Z,6.00
2022-11-30T16:50:42.214Z,11.20
2022-11-30T16:53:19.267Z,4.80
2022-11-30T16:55:48.321Z,7.00
2022-11-30T16:58:17.302Z,6.40
2022-11-30T17:00:46.095Z,6.00
2022-11-30T17:03:20.337Z,9.60
2022-11-30T17:05:50.581Z,10.60
2022-11-30T17:08:22.176Z,12.00
2022-11-30T17:10:52.043Z,14.20
2022-11-30T17:13:22.220Z,6.60
2022-11-30T17:15:52.786Z,8.80
2022-11-30T17:18:29.560Z,10.00
2022-11-30T17:21:00.997Z,3.00
2022-11-30T17:23:30.031Z,4.00
2022-11-30T17:26:01.773Z,5.60
2022-11-30T17:28:31.057Z,6.60
2022-11-30T17:31:00.467Z,0.40
2022-11-30T17:33:34.258Z,6.00
2022-11-30T17:36:06.698Z,12.60
2022-11-30T17:38:36.862Z,10.00
2022-11-30T17:41:06.347Z,9.40
2022-11-30T17:43:35.030Z,11.00
2022-11-30T17:46:06.423Z,12.00
2022-11-30T17:48:36.928Z,4.40
2022-11-30T17:51:07.481Z,9.80
2022-11-30T17:53:43.191Z,7.00
2022-11-30T17:56:13.061Z,10.60
2022-11-30T17:58:45.718Z,11.20
2022-11-30T18:01:17.329Z,7.40
2022-11-30T18:03:48.923Z,12.60
2022-11-30T18:06:19.023Z,6.40
2022-11-30T18:08:48.610Z,5.60
2022-11-30T18:11:19.478Z,12.40
2022-11-30T18:13:50.204Z,9.00
2022-11-30T18:16:20.461Z,11.20
2022-11-30T18:18:49.511Z,10.40
2022-11-30T18:21:21.029Z,10.40
2022-11-30T18:23:50.004Z,6.60
2022-11-30T18:26:37.618Z,6.40
2022-11-30T18:29:07.290Z,8.20
2022-11-30T18:31:36.911Z,12.60
2022-11-30T18:34:17.094Z,9.00
2022-11-30T18:36:51.471Z,7.80
2022-11-30T18:39:21.762Z,6.80
2022-11-30T18:41:51.118Z,9.40
2022-11-30T18:44:19.844Z,13.80
2022-11-30T18:46:54.765Z,13.00
2022-11-30T18:49:24.513Z,9.00
2022-11-30T18:51:55.475Z,9.60
2022-11-30T18:54:25.875Z,7.00
2022-11-30T18:56:54.912Z,12.60
2022-11-30T18:59:23.598Z,9.00
2022-11-30T19:01:53.761Z,11.20
2022-11-30T19:04:24.449Z,6.00
2022-11-30T19:06:55.427Z,4.00
2022-11-30T19:09:24.476Z,7.80
2022-11-30T19:11:53.246Z,8.20
2022-11-30T19:14:22.616Z,7.00
2022-11-30T19:16:51.318Z,5.60
2022-11-30T19:19:20.125Z,2.20
2022-11-30T19:21:50.013Z,7.00
2022-11-30T19:24:20.399Z,5.60
2022-11-30T19:26:49.482Z,6.00
2022-11-30T19:29:49.267Z,4.00
2022-11-30T19:32:35.498Z,3.80
2022-11-30T19:35:04.260Z,4.80
2022-11-30T19:37:35.442Z,5.20
2022-11-30T19:40:09.768Z,7.00
2022-11-30T19:42:57.795Z,9.00
2022-11-30T19:45:26.536Z,6.00
2022-11-30T19:47:56.310Z,4.00
2022-11-30T19:50:26.167Z,3.20
2022-11-30T19:52:55.905Z,12.60
2022-11-30T19:55:29.554Z,7.00
2022-11-30T19:58:15.591Z,5.20
2022-11-30T20:00:48.110Z,7.60
2022-11-30T20:03:17.199Z,5.20
2022-11-30T20:05:50.903Z,6.80
2022-11-30T20:08:37.007Z,3.80
2022-11-30T20:11:09.268Z,6.00
2022-11-30T20:13:39.363Z,1.00
2022-11-30T20:16:26.866Z,6.00
2022-11-30T20:18:58.200Z,10.40
2022-11-30T20:21:28.166Z,5.60
2022-11-30T20:23:58.671Z,8.60
2022-11-30T20:26:30.240Z,8.60
2022-11-30T20:28:59.524Z,12.00
2022-11-30T20:31:30.021Z,8.60
2022-11-30T20:33:59.221Z,6.00
2022-11-30T20:36:29.252Z,7.00
2022-11-30T20:38:59.219Z,12.00
2022-11-30T20:41:29.628Z,11.60
2022-11-30T20:43:59.787Z,6.20
2022-11-30T20:46:29.810Z,10.00
2022-11-30T20:48:59.325Z,6.00
2022-11-30T20:51:31.671Z,3.60
2022-11-30T20:54:01.395Z,6.00
2022-11-30T20:56:31.722Z,2.20
2022-11-30T20:59:04.726Z,6.00
2022-11-30T21:01:36.271Z,6.00
2022-11-30T21:04:05.489Z,11.60
2022-11-30T21:06:35.333Z,9.00
2022-11-30T21:09:04.000Z,6.80
2022-11-30T21:11:34.699Z,5.00
2022-11-30T21:14:03.446Z,7.00
2022-11-30T21:16:34.315Z,6.40
2022-11-30T21:19:02.955Z,8.20
2022-11-30T21:21:33.370Z,7.40
2022-11-30T21:24:03.217Z,9.60
2022-11-30T21:26:34.231Z,6.00
2022-11-30T21:29:03.731Z,8.60
2022-11-30T21:31:32.533Z,1.00
2022-11-30T21:34:01.451Z,8.00
2022-11-30T21:36:30.260Z,6.60
2022-11-30T21:39:06.310Z,9.20
2022-11-30T21:41:38.394Z,7.00
2022-11-30T21:44:07.539Z,4.80
2022-11-30T21:46:45.842Z,5.20
2022-11-30T21:49:14.802Z,12.20
2022-11-30T21:51:44.223Z,5.40
2022-11-30T21:54:13.715Z,13.80
2022-11-30T21:56:45.153Z,4.40
2022-11-30T21:59:15.258Z,15.60
2022-11-30T22:01:44.560Z,4.80
2022-11-30T22:04:14.068Z,7.40
2022-11-30T22:06:43.002Z,6.60
2022-11-30T22:09:13.721Z,5.00
2022-11-30T22:11:45.260Z,6.80
2022-11-30T22:14:15.776Z,7.40
2022-11-30T22:16:44.560Z,5.60
2022-11-30T22:19:15.965Z,9.40
2022-11-30T22:21:49.818Z,10.60
2022-11-30T22:24:19.026Z,9.40
2022-11-30T22:26:50.407Z,6.40
2022-11-30T22:29:20.176Z,12.80
2022-11-30T22:31:49.884Z,14.00
2022-11-30T22:34:18.957Z,9.60
2022-11-30T22:36:48.885Z,8.20
2022-11-30T22:39:18.509Z,7.20
2022-11-30T22:41:54.806Z,10.40
2022-11-30T22:44:25.766Z,11.40
2022-11-30T22:46:54.929Z,9.20
2022-11-30T22:49:27.600Z,9.00
2022-11-30T22:51:56.290Z,6.60
2022-11-30T22:54:24.988Z,10.00
2022-11-30T22:56:55.099Z,11.20
2022-11-30T22:59:23.734Z,11.40
2022-11-30T23:01:53.650Z,8.60
2022-11-30T23:04:23.213Z,15.40
2022-11-30T23:06:51.985Z,14.40
2022-11-30T23:09:21.981Z,11.20
2022-11-30T23:11:50.734Z,12.80
2022-11-30T23:14:21.394Z,10.00
2022-11-30T23:16:50.072Z,9.00
2022-11-30T23:19:18.802Z,10.00
2022-11-30T23:21:48.859Z,6.80
2022-11-30T23:24:20.472Z,9.60
2022-11-30T23:26:49.534Z,11.60
2022-11-30T23:29:18.818Z,9.60
2022-11-30T23:31:49.250Z,15.20
2022-11-30T23:34:21.490Z,13.00
2022-11-30T23:36:50.332Z,17.20
2022-11-30T23:39:19.780Z,12.00
2022-11-30T23:41:49.563Z,12.80
2022-11-30T23:44:18.455Z,11.80
2022-11-30T23:46:48.832Z,11.20
2022-11-30T23:49:17.735Z,15.60
2022-11-30T23:51:46.517Z,9.00
2022-11-30T23:54:15.218Z,12.80
2022-11-30T23:56:44.719Z,10.40
2022-11-30T23:59:13.668Z,10.00
